Golconda, Illinois
Current Conditions -  °F | °C
As of 7:15 PM on Monday 20 Oct 2014 (Local Time) from KM30 Reporting Station
Scattered Clouds Scattered Clouds  
Wind Chill: 62°   Ceiling: Unl
Heat Index: 62°   Visibility: 10mi
Dew Point: 56°   Wind: 3mph
Humidity: 79%   Direction: 220°SW
Pressure: 29.96"   Gusts: NA
Location:  37.37°N, 88.49°W
Report Text: KM30 210015Z AUTO 22003KT 10SM SCT075 17/13 A2996 RMK AO2 T01680132
Loading
Personal Weather Stations






























Interactive Weather Map
Tropical Storm Tracking
New forecast layout! Learn more

10-Day Weather Forecast

Advertisements
Track Severe Weather on mobile